createdAt,value
2019-01-18T00:00:35.608Z,79.41
2019-01-18T00:01:35.591Z,80.04
2019-01-18T00:02:35.623Z,80.04
2019-01-18T00:03:35.582Z,79.83
2019-01-18T00:04:35.566Z,79.10
2019-01-18T00:05:35.545Z,79.21
2019-01-18T00:06:35.534Z,79.72
2019-01-18T00:07:35.531Z,80.04
2019-01-18T00:08:35.607Z,80.04
2019-01-18T00:09:35.508Z,80.15
2019-01-18T00:10:35.564Z,79.10
2019-01-18T00:11:35.501Z,79.21
2019-01-18T00:12:35.494Z,79.83
2019-01-18T00:13:35.478Z,80.04
2019-01-18T00:14:35.507Z,81.18
2019-01-18T00:15:35.441Z,81.29
2019-01-18T00:16:35.499Z,81.91
2019-01-18T00:17:35.436Z,81.70
2019-01-18T00:18:35.419Z,82.01
2019-01-18T00:19:35.431Z,82.01
2019-01-18T00:20:35.417Z,81.91
2019-01-18T00:21:35.437Z,81.91
2019-01-18T00:22:35.405Z,81.91
2019-01-18T00:23:35.360Z,81.91
2019-01-18T00:24:35.340Z,82.22
2019-01-18T00:25:35.335Z,82.22
2019-01-18T00:26:35.479Z,82.01
2019-01-18T00:27:35.351Z,82.32
2019-01-18T00:28:35.362Z,82.32
2019-01-18T00:29:35.305Z,82.64
2019-01-18T00:30:35.274Z,82.53
2019-01-18T00:31:43.002Z,83.37
2019-01-18T00:32:35.267Z,83.26
2019-01-18T00:33:35.294Z,83.89
2019-01-18T00:34:35.244Z,83.99
2019-01-18T00:35:35.240Z,84.03
2019-01-18T00:36:35.383Z,84.34
2019-01-18T00:37:35.248Z,84.20
2019-01-18T00:38:35.231Z,84.03
2019-01-18T00:39:35.242Z,84.55
2019-01-18T00:40:35.175Z,85.38
2019-01-18T00:41:35.214Z,85.00
2019-01-18T00:42:35.169Z,85.59
2019-01-18T00:43:35.147Z,84.69
2019-01-18T00:44:35.156Z,85.52
2019-01-18T00:45:35.118Z,84.27
2019-01-18T00:46:35.112Z,85.06
2019-01-18T00:47:35.138Z,84.06
2019-01-18T00:48:35.109Z,84.27
2019-01-18T00:49:35.106Z,84.59
2019-01-18T00:50:35.092Z,84.48
2019-01-18T00:51:35.048Z,84.48
2019-01-18T00:52:35.051Z,85.52
2019-01-18T00:53:35.084Z,85.00
2019-01-18T00:54:35.032Z,84.59
2019-01-18T00:55:35.031Z,84.48
2019-01-18T00:56:35.077Z,83.96
2019-01-18T00:57:35.027Z,83.75
2019-01-18T00:58:34.993Z,83.65
2019-01-18T00:59:36.400Z,82.30
2019-01-18T01:00:34.991Z,82.30
2019-01-18T01:01:34.947Z,82.71
2019-01-18T01:02:34.947Z,82.71
2019-01-18T01:03:35.005Z,83.23
2019-01-18T01:04:34.913Z,82.57
2019-01-18T01:05:34.975Z,82.71
2019-01-18T01:06:34.899Z,82.51
2019-01-18T01:07:34.889Z,82.71
2019-01-18T01:08:34.873Z,82.30
2019-01-18T01:09:35.042Z,82.61
2019-01-18T01:10:34.856Z,82.82
2019-01-18T01:11:34.927Z,81.98
2019-01-18T01:12:34.849Z,82.09
2019-01-18T01:13:34.843Z,82.71
2019-01-18T01:14:34.903Z,82.68
2019-01-18T01:15:34.804Z,82.46
2019-01-18T01:16:35.187Z,82.57
2019-01-18T01:17:34.838Z,82.20
2019-01-18T01:18:34.774Z,82.09
2019-01-18T01:19:34.752Z,82.36
2019-01-18T01:20:34.745Z,82.61
2019-01-18T01:21:34.732Z,82.51
2019-01-18T01:22:35.447Z,83.03
2019-01-18T01:23:34.762Z,83.40
2019-01-18T01:24:34.695Z,83.34
2019-01-18T01:25:34.785Z,83.23
2019-01-18T01:26:35.395Z,83.54
2019-01-18T01:27:34.669Z,83.86
2019-01-18T01:28:34.679Z,84.48
2019-01-18T01:29:34.644Z,85.00
2019-01-18T01:30:34.636Z,85.42
2019-01-18T01:31:34.617Z,85.00
2019-01-18T01:32:34.603Z,84.80
2019-01-18T01:33:34.609Z,84.69
2019-01-18T01:34:34.646Z,84.42
2019-01-18T01:35:34.581Z,85.60
2019-01-18T01:36:34.569Z,86.85
2019-01-18T01:37:35.390Z,87.06
2019-01-18T01:38:34.546Z,87.02
2019-01-18T01:39:34.554Z,87.37
2019-01-18T01:40:34.567Z,85.91
2019-01-18T01:41:34.519Z,86.58
2019-01-18T01:42:34.501Z,87.30
2019-01-18T01:43:34.514Z,87.52
2019-01-18T01:44:34.490Z,87.52
2019-01-18T01:45:34.467Z,87.20
2019-01-18T01:46:34.509Z,87.41
2019-01-18T01:47:34.448Z,86.89
2019-01-18T01:48:34.434Z,86.06
2019-01-18T01:49:34.449Z,85.89
2019-01-18T01:50:34.425Z,85.68
2019-01-18T01:51:34.415Z,85.30
2019-01-18T01:52:34.424Z,86.13
2019-01-18T01:53:34.383Z,85.44
2019-01-18T01:54:34.426Z,85.72
2019-01-18T01:55:34.363Z,85.76
2019-01-18T01:56:34.352Z,85.34
2019-01-18T01:57:34.340Z,85.44
2019-01-18T01:58:34.370Z,85.24
2019-01-18T01:59:34.313Z,87.01
2019-01-18T02:00:34.900Z,87.12
2019-01-18T02:01:34.288Z,85.55
2019-01-18T02:02:34.303Z,84.61
2019-01-18T02:03:34.276Z,83.78
2019-01-18T02:04:34.268Z,84.82
2019-01-18T02:05:34.269Z,85.55
2019-01-18T02:06:34.271Z,85.76
2019-01-18T02:07:34.221Z,84.19
2019-01-18T02:08:34.230Z,82.84
2019-01-18T02:09:34.222Z,82.94
2019-01-18T02:10:34.193Z,83.47
2019-01-18T02:11:34.201Z,83.36
2019-01-18T02:12:34.228Z,83.47
2019-01-18T02:13:34.166Z,83.57
2019-01-18T02:14:34.149Z,83.50
2019-01-18T02:15:34.177Z,83.08
2019-01-18T02:16:34.137Z,82.94
2019-01-18T02:17:34.117Z,82.77
2019-01-18T02:18:34.152Z,83.08
2019-01-18T02:19:34.094Z,83.71
2019-01-18T02:20:34.093Z,82.77
2019-01-18T02:21:34.095Z,82.46
2019-01-18T02:22:34.090Z,83.08
2019-01-18T02:23:34.054Z,83.29
2019-01-18T02:24:34.082Z,83.50
2019-01-18T02:25:34.167Z,81.31
2019-01-18T02:26:34.030Z,80.99
2019-01-18T02:27:34.058Z,82.70
2019-01-18T02:28:34.005Z,82.46
2019-01-18T02:29:33.990Z,82.14
2019-01-18T02:30:34.002Z,83.08
2019-01-18T02:31:33.964Z,83.54
2019-01-18T02:32:33.958Z,83.61
2019-01-18T02:33:33.995Z,83.92
2019-01-18T02:34:33.950Z,84.06
2019-01-18T02:35:33.951Z,84.48
2019-01-18T02:36:33.971Z,83.92
2019-01-18T02:37:33.906Z,83.50
2019-01-18T02:38:33.924Z,84.06
2019-01-18T02:39:33.880Z,84.86
2019-01-18T02:40:33.884Z,85.06
2019-01-18T02:41:33.871Z,83.61
2019-01-18T02:42:33.880Z,83.50
2019-01-18T02:43:33.839Z,83.71
2019-01-18T02:44:33.833Z,84.86
2019-01-18T02:45:33.822Z,84.34
2019-01-18T02:46:33.822Z,84.23
2019-01-18T02:47:33.896Z,81.83
2019-01-18T02:48:33.804Z,81.87
2019-01-18T02:49:33.783Z,80.51
2019-01-18T02:50:33.859Z,79.68
2019-01-18T02:51:33.766Z,79.99
2019-01-18T02:52:33.755Z,79.36
2019-01-18T02:53:33.791Z,79.78
2019-01-18T02:54:33.730Z,79.99
2019-01-18T02:55:33.714Z,80.09
2019-01-18T02:56:33.700Z,79.57
2019-01-18T02:57:33.706Z,80.72
2019-01-18T02:58:33.730Z,81.56
2019-01-18T02:59:33.675Z,83.12
2019-01-18T03:00:33.683Z,82.29
2019-01-18T03:01:33.698Z,81.56
2019-01-18T03:02:33.727Z,82.22
2019-01-18T03:03:33.627Z,82.43
2019-01-18T03:04:33.649Z,82.64
2019-01-18T03:05:33.643Z,83.37
2019-01-18T03:06:33.640Z,83.16
2019-01-18T03:07:33.598Z,82.64
2019-01-18T03:08:33.613Z,83.54
2019-01-18T03:09:33.571Z,83.37
2019-01-18T03:10:33.551Z,84.17
2019-01-18T03:11:33.533Z,84.69
2019-01-18T03:12:33.566Z,84.00
2019-01-18T03:13:33.526Z,84.06
2019-01-18T03:14:33.519Z,84.41
2019-01-18T03:15:33.502Z,85.35
2019-01-18T03:16:33.478Z,85.31
2019-01-18T03:17:33.472Z,84.31
2019-01-18T03:18:33.497Z,84.52
2019-01-18T03:19:33.455Z,84.20
2019-01-18T03:20:33.437Z,83.58
2019-01-18T03:21:33.436Z,83.16
2019-01-18T03:22:33.413Z,82.95
2019-01-18T03:23:33.452Z,83.54
2019-01-18T03:24:33.398Z,83.78
2019-01-18T03:25:33.448Z,84.00
2019-01-18T03:26:33.375Z,83.68
2019-01-18T03:27:33.372Z,83.89
2019-01-18T03:28:33.351Z,83.89
2019-01-18T03:29:33.376Z,83.78
2019-01-18T03:30:33.342Z,83.78
2019-01-18T03:31:33.409Z,83.58
2019-01-18T03:32:33.455Z,83.89
2019-01-18T03:33:33.363Z,84.10
2019-01-18T03:34:33.355Z,83.78
2019-01-18T03:35:33.272Z,84.20
2019-01-18T03:36:33.277Z,84.03
2019-01-18T03:37:33.261Z,84.34
2019-01-18T03:38:33.254Z,84.24
2019-01-18T03:39:33.228Z,84.24
2019-01-18T03:40:33.266Z,84.56
2019-01-18T03:41:33.212Z,84.56
2019-01-18T03:42:33.208Z,84.56
2019-01-18T03:43:33.206Z,84.45
2019-01-18T03:44:33.180Z,85.29
2019-01-18T03:45:33.223Z,85.18
2019-01-18T03:46:33.192Z,85.18
2019-01-18T03:47:33.167Z,85.29
2019-01-18T03:48:33.220Z,85.29
2019-01-18T03:49:33.125Z,84.87
2019-01-18T03:50:33.118Z,84.34
2019-01-18T03:51:33.122Z,83.62
2019-01-18T03:52:33.147Z,83.72
2019-01-18T03:53:33.916Z,83.93
2019-01-18T03:54:33.088Z,83.62
2019-01-18T03:55:33.104Z,83.09
2019-01-18T03:56:33.059Z,83.09
2019-01-18T03:57:33.050Z,82.99
2019-01-18T03:58:33.033Z,83.30
2019-01-18T03:59:33.049Z,83.30
2019-01-18T04:00:33.026Z,83.30
2019-01-18T04:01:33.051Z,83.20
2019-01-18T04:02:33.033Z,82.57
2019-01-18T04:03:32.979Z,82.32
2019-01-18T04:04:32.972Z,82.32
2019-01-18T04:05:32.961Z,82.12
2019-01-18T04:06:32.965Z,82.32
2019-01-18T04:07:33.030Z,82.64
2019-01-18T04:08:32.931Z,82.22
2019-01-18T04:09:32.914Z,82.39
2019-01-18T04:10:32.928Z,81.70
2019-01-18T04:11:32.912Z,81.97
2019-01-18T04:12:32.893Z,82.07
2019-01-18T04:13:32.922Z,82.07
2019-01-18T04:14:32.876Z,81.76
2019-01-18T04:15:32.896Z,82.18
2019-01-18T04:16:33.090Z,81.76
2019-01-18T04:17:32.845Z,81.13
2019-01-18T04:18:32.821Z,80.30
2019-01-18T04:19:32.847Z,80.62
2019-01-18T04:20:32.827Z,80.72
2019-01-18T04:21:32.815Z,81.45
2019-01-18T04:22:32.779Z,81.13
2019-01-18T04:23:32.766Z,81.35
2019-01-18T04:24:32.760Z,81.13
2019-01-18T04:25:32.741Z,81.21
2019-01-18T04:26:32.764Z,80.27
2019-01-18T04:27:32.721Z,80.20
2019-01-18T04:28:32.707Z,80.51
2019-01-18T04:29:32.701Z,80.89
2019-01-18T04:30:33.525Z,81.45
2019-01-18T04:31:32.671Z,81.13
2019-01-18T04:32:43.528Z,81.31
2019-01-18T04:33:32.719Z,81.10
2019-01-18T04:34:32.644Z,81.21
2019-01-18T04:35:32.649Z,81.21
2019-01-18T04:36:32.618Z,80.79
2019-01-18T04:37:32.616Z,80.47
2019-01-18T04:38:32.637Z,80.58
2019-01-18T04:39:32.593Z,79.85
2019-01-18T04:40:32.587Z,80.27
2019-01-18T04:41:32.573Z,80.47
2019-01-18T04:42:32.562Z,80.27
2019-01-18T04:43:32.572Z,79.64
2019-01-18T04:44:32.569Z,77.24
2019-01-18T04:45:32.529Z,76.61
2019-01-18T04:46:32.519Z,76.30
2019-01-18T04:47:32.519Z,75.92
2019-01-18T04:48:32.563Z,76.12
2019-01-18T04:49:32.496Z,76.72
2019-01-18T04:50:32.476Z,75.15
2019-01-18T04:51:32.454Z,74.21
2019-01-18T04:52:32.456Z,72.44
2019-01-18T04:53:32.450Z,72.64
2019-01-18T04:54:32.474Z,72.36
2019-01-18T04:55:32.434Z,71.01
2019-01-18T04:56:32.404Z,71.01
2019-01-18T04:57:32.396Z,71.42
2019-01-18T04:58:32.386Z,71.11
2019-01-18T04:59:32.446Z,70.48
2019-01-18T05:00:32.435Z,71.53
2019-01-18T05:01:32.365Z,70.28
2019-01-18T05:02:32.343Z,70.17
2019-01-18T05:03:32.331Z,70.38
2019-01-18T05:04:32.333Z,70.17
2019-01-18T05:05:32.305Z,69.76
2019-01-18T05:06:32.351Z,71.22
2019-01-18T05:07:32.319Z,71.22
2019-01-18T05:08:32.318Z,71.64
2019-01-18T05:09:32.278Z,70.70
2019-01-18T05:10:32.257Z,71.11
2019-01-18T05:11:32.913Z,69.76
2019-01-18T05:12:32.249Z,71.42
2019-01-18T05:13:32.279Z,70.80
2019-01-18T05:14:32.219Z,71.84
2019-01-18T05:15:32.213Z,71.84
2019-01-18T05:16:32.196Z,71.74
2019-01-18T05:17:32.202Z,71.01
2019-01-18T05:18:32.179Z,71.32
2019-01-18T05:19:32.229Z,71.42
2019-01-18T05:20:32.147Z,71.01
2019-01-18T05:21:32.154Z,71.11
2019-01-18T05:22:32.125Z,71.11
2019-01-18T05:23:32.132Z,71.42
2019-01-18T05:24:32.129Z,71.53
2019-01-18T05:25:32.135Z,72.47
2019-01-18T05:26:32.087Z,71.95
2019-01-18T05:27:32.146Z,71.95
2019-01-18T05:28:32.061Z,71.74
2019-01-18T05:30:47.434Z,72.58
2019-01-18T05:31:42.816Z,72.47
2019-01-18T05:32:41.826Z,72.26
2019-01-18T05:33:41.786Z,71.01
2019-01-18T05:34:41.784Z,71.42
2019-01-18T05:35:41.765Z,71.01
2019-01-18T05:36:41.782Z,69.86
2019-01-18T05:37:41.765Z,70.07
2019-01-18T05:38:41.742Z,69.44
2019-01-18T05:39:41.744Z,68.92
2019-01-18T05:40:41.717Z,69.34
2019-01-18T05:41:41.706Z,68.71
2019-01-18T05:42:41.731Z,68.40
2019-01-18T05:43:41.689Z,69.44
2019-01-18T05:44:41.699Z,68.71
2019-01-18T05:45:41.684Z,68.29
2019-01-18T05:46:41.657Z,68.50
2019-01-18T05:47:41.640Z,68.82
2019-01-18T05:48:41.625Z,68.40
2019-01-18T05:49:41.642Z,69.54
2019-01-18T05:50:41.613Z,69.44
2019-01-18T05:51:41.602Z,68.82
2019-01-18T05:52:41.589Z,68.08
2019-01-18T05:53:41.578Z,68.60
2019-01-18T05:54:41.571Z,68.71
2019-01-18T05:55:41.595Z,69.02
2019-01-18T05:56:41.546Z,68.40
2019-01-18T05:57:41.542Z,67.77
2019-01-18T05:58:41.724Z,68.85
2019-01-18T05:59:41.528Z,68.43
2019-01-18T06:00:41.516Z,68.50
2019-01-18T06:01:41.507Z,68.40
2019-01-18T06:02:42.064Z,68.82
2019-01-18T06:03:41.471Z,68.40
2019-01-18T06:04:41.459Z,68.19
2019-01-18T06:05:41.445Z,69.23
2019-01-18T06:06:41.440Z,67.98
2019-01-18T06:07:41.454Z,69.13
2019-01-18T06:08:41.460Z,68.19
2019-01-18T06:09:41.415Z,69.02
2019-01-18T06:10:41.395Z,69.13
2019-01-18T06:11:41.379Z,69.65
2019-01-18T06:12:41.394Z,69.96
2019-01-18T06:13:41.415Z,70.07
2019-01-18T06:14:41.355Z,71.11
2019-01-18T06:15:41.409Z,70.45
2019-01-18T06:16:41.331Z,69.34
2019-01-18T06:17:41.327Z,69.54
2019-01-18T06:18:41.341Z,68.37
2019-01-18T06:19:41.320Z,68.37
2019-01-18T06:20:41.283Z,68.40
2019-01-18T06:21:41.276Z,68.29
2019-01-18T06:22:41.273Z,68.71
2019-01-18T06:23:41.261Z,68.08
2019-01-18T06:24:41.264Z,69.23
2019-01-18T06:25:41.279Z,69.23
2019-01-18T06:26:41.229Z,69.65
2019-01-18T06:27:41.212Z,70.07
2019-01-18T06:28:41.202Z,69.54
2019-01-18T06:29:41.194Z,68.82
2019-01-18T06:30:41.180Z,68.40
2019-01-18T06:31:41.227Z,69.13
2019-01-18T06:32:41.155Z,69.34
2019-01-18T06:33:41.184Z,69.23
2019-01-18T06:34:41.154Z,68.40
2019-01-18T06:35:41.132Z,68.19
2019-01-18T06:36:41.123Z,69.44
2019-01-18T06:37:41.130Z,68.40
2019-01-18T06:38:41.120Z,68.53
2019-01-18T06:39:41.076Z,68.53
2019-01-18T06:40:41.087Z,69.16
2019-01-18T06:41:41.076Z,69.68
2019-01-18T06:42:41.065Z,69.34
2019-01-18T06:43:41.053Z,69.79
2019-01-18T06:44:41.044Z,70.20
2019-01-18T06:45:41.013Z,69.89
2019-01-18T06:46:41.010Z,70.00
2019-01-18T06:47:40.999Z,69.47
2019-01-18T06:48:41.003Z,70.31
2019-01-18T06:49:41.004Z,70.73
2019-01-18T06:50:40.957Z,70.73
2019-01-18T06:51:40.952Z,70.20
2019-01-18T06:52:40.942Z,70.52
2019-01-18T06:53:40.936Z,70.41
2019-01-18T06:54:40.919Z,70.55
2019-01-18T06:55:40.919Z,70.55
2019-01-18T06:56:40.894Z,70.34
2019-01-18T06:57:40.875Z,69.82
2019-01-18T06:58:40.878Z,70.55
2019-01-18T06:59:40.877Z,70.24
2019-01-18T07:00:40.882Z,70.45
2019-01-18T07:01:40.835Z,70.17
2019-01-18T07:02:40.834Z,69.82
2019-01-18T07:03:40.824Z,69.33
2019-01-18T07:04:42.351Z,69.54
2019-01-18T07:05:40.798Z,69.51
2019-01-18T07:06:40.806Z,69.95
2019-01-18T07:07:40.774Z,69.64
2019-01-18T07:08:40.768Z,69.95
2019-01-18T07:09:40.784Z,69.74
2019-01-18T07:10:40.747Z,70.27
2019-01-18T07:11:40.742Z,70.17
2019-01-18T07:12:40.719Z,70.06
2019-01-18T07:13:40.722Z,69.99
2019-01-18T07:14:40.702Z,70.72
2019-01-18T07:15:40.716Z,70.30
2019-01-18T07:16:40.677Z,70.40
2019-01-18T07:17:40.693Z,70.51
2019-01-18T07:18:40.655Z,70.40
2019-01-18T07:19:40.692Z,70.72
2019-01-18T07:20:40.634Z,70.72
2019-01-18T07:21:40.645Z,70.61
2019-01-18T07:22:40.620Z,70.09
2019-01-18T07:23:40.602Z,70.51
2019-01-18T07:24:40.586Z,69.57
2019-01-18T07:25:40.581Z,70.20
2019-01-18T07:26:40.570Z,70.02
2019-01-18T07:27:40.594Z,71.97
2019-01-18T07:28:40.568Z,71.69
2019-01-18T07:29:40.541Z,71.28
2019-01-18T07:30:40.552Z,71.56
2019-01-18T07:31:40.522Z,71.48
2019-01-18T07:32:40.506Z,71.28
2019-01-18T07:33:40.520Z,71.24
2019-01-18T07:34:40.487Z,71.24
2019-01-18T07:35:40.486Z,70.43
2019-01-18T07:36:40.462Z,70.93
2019-01-18T07:37:40.474Z,71.14
2019-01-18T07:38:40.447Z,71.34
2019-01-18T07:39:40.428Z,70.72
2019-01-18T07:40:40.432Z,70.93
2019-01-18T07:41:40.402Z,71.56
2019-01-18T07:42:40.417Z,71.03
2019-01-18T07:43:40.405Z,71.03
2019-01-18T07:44:40.394Z,69.99
2019-01-18T07:45:40.399Z,69.78
2019-01-18T07:46:40.356Z,70.61
2019-01-18T07:47:40.353Z,70.61
2019-01-18T07:48:40.345Z,70.61
2019-01-18T07:49:40.371Z,70.51
2019-01-18T07:50:40.332Z,70.83
2019-01-18T07:51:40.316Z,70.40
2019-01-18T07:52:40.283Z,70.40
2019-01-18T07:53:40.294Z,70.72
2019-01-18T07:54:40.262Z,70.30
2019-01-18T07:55:40.259Z,70.72
2019-01-18T07:56:40.255Z,70.51
2019-01-18T07:57:40.259Z,70.72
2019-01-18T07:58:40.221Z,70.61
2019-01-18T07:59:40.203Z,70.72
2019-01-18T08:00:40.189Z,70.54
2019-01-18T08:01:40.196Z,70.51
2019-01-18T08:02:40.171Z,70.51
2019-01-18T08:03:40.172Z,69.88
2019-01-18T08:04:40.147Z,70.61
2019-01-18T08:05:40.137Z,70.51
2019-01-18T08:06:40.123Z,70.61
2019-01-18T08:07:40.133Z,70.83
2019-01-18T08:08:40.111Z,70.61
2019-01-18T08:09:40.131Z,70.40
2019-01-18T08:10:40.083Z,71.14
2019-01-18T08:11:40.080Z,70.93
2019-01-18T08:12:40.061Z,69.88
2019-01-18T08:13:40.057Z,70.40
2019-01-18T08:14:40.047Z,69.99
2019-01-18T08:15:40.055Z,70.61
2019-01-18T08:16:40.033Z,70.61
2019-01-18T08:17:40.012Z,70.40
2019-01-18T08:18:39.998Z,70.09
2019-01-18T08:19:39.989Z,70.51
2019-01-18T08:20:39.983Z,70.61
2019-01-18T08:21:39.993Z,70.40
2019-01-18T08:22:39.959Z,70.40
2019-01-18T08:23:39.939Z,70.72
2019-01-18T08:24:39.966Z,70.61
2019-01-18T08:25:39.935Z,70.61
2019-01-18T08:26:39.915Z,70.72
2019-01-18T08:27:39.906Z,70.72
2019-01-18T08:28:39.888Z,70.72
2019-01-18T08:29:39.887Z,69.99
2019-01-18T08:30:39.905Z,70.20
2019-01-18T08:31:39.857Z,70.30
2019-01-18T08:32:39.876Z,69.88
2019-01-18T08:33:39.874Z,70.61
2019-01-18T08:34:39.822Z,70.51
2019-01-18T08:35:39.812Z,70.61
2019-01-18T08:36:39.847Z,70.30
2019-01-18T08:37:39.798Z,70.48
2019-01-18T08:38:39.784Z,70.83
2019-01-18T08:39:39.781Z,70.90
2019-01-18T08:40:39.766Z,71.73
2019-01-18T08:41:39.818Z,71.97
2019-01-18T08:42:39.736Z,71.03
2019-01-18T08:43:39.754Z,71.52
2019-01-18T08:44:39.722Z,72.08
2019-01-18T08:45:39.699Z,72.39
2019-01-18T08:46:39.693Z,72.67
2019-01-18T08:47:39.713Z,72.88
2019-01-18T08:48:39.672Z,72.88
2019-01-18T08:49:39.685Z,71.94
2019-01-18T08:50:39.651Z,72.15
2019-01-18T08:51:39.647Z,71.94
2019-01-18T08:52:39.638Z,72.02
2019-01-18T08:53:39.658Z,72.57
2019-01-18T08:54:39.603Z,72.47
2019-01-18T08:55:39.596Z,72.57
2019-01-18T08:56:39.591Z,72.75
2019-01-18T08:57:39.631Z,72.78
2019-01-18T08:58:39.584Z,72.88
2019-01-18T08:59:39.583Z,72.99
2019-01-18T09:00:39.555Z,72.67
2019-01-18T09:01:39.533Z,73.06
2019-01-18T09:02:39.542Z,73.06
2019-01-18T09:03:39.515Z,72.88
2019-01-18T09:04:39.504Z,72.99
2019-01-18T09:05:39.510Z,73.51
2019-01-18T09:06:39.483Z,73.06
2019-01-18T09:07:39.469Z,73.47
2019-01-18T09:08:39.482Z,73.47
2019-01-18T09:09:39.452Z,72.96
2019-01-18T09:10:39.434Z,73.06
2019-01-18T09:11:39.446Z,73.69
2019-01-18T09:12:39.439Z,73.47
2019-01-18T09:13:39.402Z,73.06
2019-01-18T09:14:39.397Z,73.37
2019-01-18T09:15:39.375Z,73.06
2019-01-18T09:16:39.377Z,74.10
2019-01-18T09:17:39.386Z,73.55
2019-01-18T09:18:39.391Z,73.13
2019-01-18T09:19:39.348Z,73.55
2019-01-18T09:20:39.326Z,73.13
2019-01-18T09:21:39.318Z,73.37
2019-01-18T09:22:39.308Z,73.55
2019-01-18T09:23:39.292Z,72.92
2019-01-18T09:24:39.327Z,73.34
2019-01-18T09:25:39.295Z,73.24
2019-01-18T09:26:39.260Z,73.13
2019-01-18T09:27:39.259Z,72.71
2019-01-18T09:28:39.262Z,72.40
2019-01-18T09:29:39.269Z,72.89
2019-01-18T09:30:39.232Z,73.02
2019-01-18T09:32:07.086Z,72.81
2019-01-18T09:32:39.196Z,72.78
2019-01-18T09:33:39.191Z,72.58
2019-01-18T09:34:39.192Z,72.36
2019-01-18T09:35:39.258Z,72.47
2019-01-18T09:36:39.155Z,72.16
2019-01-18T09:37:39.161Z,72.47
2019-01-18T09:38:39.129Z,72.64
2019-01-18T09:39:39.120Z,73.30
2019-01-18T09:40:39.120Z,72.23
2019-01-18T09:41:39.123Z,71.81
2019-01-18T09:42:39.100Z,71.60
2019-01-18T09:43:39.076Z,70.98
2019-01-18T09:44:39.064Z,71.08
2019-01-18T09:45:39.063Z,71.70
2019-01-18T09:46:39.046Z,70.63
2019-01-18T09:47:39.056Z,70.94
2019-01-18T09:48:39.036Z,70.84
2019-01-18T09:49:39.017Z,71.04
2019-01-18T09:50:39.008Z,70.21
2019-01-18T09:51:39.017Z,69.97
2019-01-18T09:52:38.975Z,70.42
2019-01-18T09:53:39.005Z,70.18
2019-01-18T09:54:38.962Z,69.87
2019-01-18T09:55:38.957Z,70.07
2019-01-18T09:56:38.945Z,69.97
2019-01-18T09:57:38.936Z,69.24
2019-01-18T09:58:38.943Z,69.21
2019-01-18T09:59:38.922Z,68.15
2019-01-18T10:00:38.915Z,64.17
2019-01-18T10:01:38.892Z,57.55
2019-01-18T10:02:38.893Z,52.11
2019-01-18T10:03:38.867Z,48.50
2019-01-18T10:04:38.848Z,46.85
2019-01-18T10:05:38.862Z,44.92
2019-01-18T10:06:38.842Z,41.56
2019-01-18T10:07:38.827Z,38.76
2019-01-18T10:08:38.818Z,37.29
2019-01-18T10:09:38.790Z,36.75
2019-01-18T10:10:38.781Z,34.70
2019-01-18T10:11:38.843Z,33.83
2019-01-18T10:12:38.758Z,33.80
2019-01-18T10:13:38.752Z,32.47
2019-01-18T10:14:38.754Z,31.24
2019-01-18T10:15:38.747Z,30.71
2019-01-18T10:16:38.722Z,30.40
2019-01-18T10:17:38.742Z,30.48
2019-01-18T10:18:38.750Z,29.64
2019-01-18T10:19:38.693Z,29.22
2019-01-18T10:20:38.684Z,28.11
2019-01-18T10:21:38.672Z,28.61
2019-01-18T10:22:38.663Z,27.18
2019-01-18T10:23:38.666Z,26.85
2019-01-18T10:24:38.672Z,25.93
2019-01-18T10:25:38.617Z,25.61
2019-01-18T10:26:38.607Z,25.31
2019-01-18T10:27:38.597Z,25.71
2019-01-18T10:28:38.597Z,25.11
2019-01-18T10:29:38.597Z,25.12
2019-01-18T10:30:38.575Z,25.84
2019-01-18T10:31:38.562Z,25.31
2019-01-18T10:32:38.547Z,25.81
2019-01-18T10:33:38.533Z,23.77
2019-01-18T10:34:38.571Z,24.18
2019-01-18T10:35:38.504Z,23.66
2019-01-18T10:36:38.503Z,23.77
2019-01-18T10:37:38.488Z,23.57
2019-01-18T10:38:38.488Z,23.88
2019-01-18T10:39:38.472Z,23.57
2019-01-18T10:40:38.459Z,24.24
2019-01-18T10:41:38.444Z,24.52
2019-01-18T10:42:38.435Z,24.10
2019-01-18T10:43:38.428Z,24.20
2019-01-18T10:44:38.451Z,24.39
2019-01-18T10:45:38.404Z,23.38
2019-01-18T10:46:38.387Z,23.58
2019-01-18T10:47:38.398Z,23.89
2019-01-18T10:48:38.372Z,23.57
2019-01-18T10:49:38.373Z,22.87
2019-01-18T10:50:38.369Z,23.16
2019-01-18T10:51:38.344Z,23.79
2019-01-18T10:52:38.332Z,23.07
2019-01-18T10:53:38.307Z,23.35
2019-01-18T10:54:38.299Z,22.83
2019-01-18T10:55:38.316Z,22.53
2019-01-18T10:56:38.274Z,22.83
2019-01-18T10:57:38.276Z,22.83
2019-01-18T10:58:38.279Z,22.94
2019-01-18T10:59:38.245Z,22.63
2019-01-18T11:00:38.242Z,22.53
2019-01-18T11:01:38.262Z,23.03
2019-01-18T11:02:53.092Z,23.05
2019-01-18T11:03:38.223Z,22.85
2019-01-18T11:04:38.186Z,23.60
2019-01-18T11:05:38.184Z,24.12
2019-01-18T11:06:38.186Z,23.60
2019-01-18T11:07:38.170Z,23.80
2019-01-18T11:08:38.149Z,23.49
2019-01-18T11:09:38.144Z,23.60
2019-01-18T11:10:38.150Z,22.98
2019-01-18T11:11:38.112Z,23.79
2019-01-18T11:12:38.105Z,23.27
2019-01-18T11:13:38.095Z,22.47
2019-01-18T11:14:38.087Z,23.89
2019-01-18T11:15:38.108Z,23.57
2019-01-18T11:16:38.059Z,23.26
2019-01-18T11:17:38.058Z,22.83
2019-01-18T11:18:38.034Z,21.82
2019-01-18T11:19:38.028Z,21.51
2019-01-18T11:20:38.047Z,21.81
2019-01-18T11:21:38.044Z,21.20
2019-01-18T11:22:37.992Z,21.90
2019-01-18T11:23:37.999Z,21.80
2019-01-18T11:24:37.986Z,22.10
2019-01-18T11:25:37.952Z,21.62
2019-01-18T11:26:37.983Z,22.03
2019-01-18T11:27:37.932Z,21.93
2019-01-18T11:28:37.939Z,21.63
2019-01-18T11:29:37.962Z,21.73
2019-01-18T11:30:37.904Z,21.83
2019-01-18T11:31:37.893Z,21.62
2019-01-18T11:32:37.889Z,21.82
2019-01-18T11:33:42.952Z,21.51
2019-01-18T11:34:37.866Z,21.82
2019-01-18T11:35:37.873Z,20.61
2019-01-18T11:36:37.876Z,20.92
2019-01-18T11:37:37.831Z,20.72
2019-01-18T11:38:37.817Z,19.71
2019-01-18T11:39:37.843Z,20.83
2019-01-18T11:40:37.801Z,20.81
2019-01-18T11:41:37.809Z,20.72
2019-01-18T11:42:37.825Z,20.92
2019-01-18T11:43:37.786Z,20.62
2019-01-18T11:44:37.760Z,20.42
2019-01-18T11:45:37.762Z,20.31
2019-01-18T11:46:37.746Z,20.32
2019-01-18T11:47:37.721Z,20.32
2019-01-18T11:48:37.729Z,20.52
2019-01-18T11:49:37.727Z,20.92
2019-01-18T11:50:37.698Z,20.83
2019-01-18T11:51:37.680Z,20.72
2019-01-18T11:52:37.664Z,21.01
2019-01-18T11:53:37.659Z,21.65
2019-01-18T11:54:37.648Z,20.83
2019-01-18T11:55:37.669Z,22.17
2019-01-18T11:56:37.624Z,22.45
2019-01-18T11:57:37.636Z,21.97
2019-01-18T11:58:37.608Z,22.27
2019-01-18T11:59:37.604Z,22.16
2019-01-18T12:00:37.976Z,22.07
2019-01-18T12:01:37.572Z,22.78
2019-01-18T12:02:37.575Z,22.89
2019-01-18T12:03:37.549Z,22.50
2019-01-18T12:04:37.541Z,23.50
2019-01-18T12:05:37.545Z,22.39
2019-01-18T12:06:37.523Z,22.79
2019-01-18T12:07:37.502Z,21.49
2019-01-18T12:08:41.815Z,22.51
2019-01-18T12:09:37.500Z,22.62
2019-01-18T12:10:37.474Z,22.92
2019-01-18T12:11:37.457Z,23.44
2019-01-18T12:12:37.471Z,22.71
2019-01-18T12:13:37.447Z,22.61
2019-01-18T12:14:37.448Z,21.68
2019-01-18T12:15:37.419Z,23.09
2019-01-18T12:16:37.425Z,21.59
2019-01-18T12:17:37.386Z,22.92
2019-01-18T12:18:37.385Z,23.05
2019-01-18T12:19:37.395Z,24.18
2019-01-18T12:20:37.396Z,24.20
2019-01-18T12:21:37.351Z,26.59
2019-01-18T12:22:37.353Z,27.67
2019-01-18T12:23:37.344Z,29.55
2019-01-18T12:24:37.330Z,30.83
2019-01-18T12:25:37.318Z,31.79
2019-01-18T12:26:37.309Z,32.86
2019-01-18T12:27:37.281Z,34.53
2019-01-18T12:28:37.281Z,35.71
2019-01-18T12:29:37.256Z,36.87
2019-01-18T12:30:37.247Z,38.14
2019-01-18T12:31:37.662Z,38.87
2019-01-18T12:32:37.240Z,39.32
2019-01-18T12:33:37.223Z,40.47
2019-01-18T12:34:37.209Z,39.77
2019-01-18T12:35:37.196Z,40.52
2019-01-18T12:36:37.201Z,41.66
2019-01-18T12:37:37.201Z,41.79
2019-01-18T12:38:37.159Z,41.71
2019-01-18T12:39:37.169Z,43.38
2019-01-18T12:40:37.135Z,43.38
2019-01-18T12:41:37.146Z,44.53
2019-01-18T12:42:37.116Z,44.43
2019-01-18T12:43:37.111Z,45.07
2019-01-18T12:44:37.098Z,46.12
2019-01-18T12:45:37.116Z,46.54
2019-01-18T12:46:37.081Z,46.54
2019-01-18T12:47:37.075Z,46.45
2019-01-18T12:48:37.052Z,47.28
2019-01-18T12:49:37.047Z,47.28
2019-01-18T12:50:37.023Z,47.18
2019-01-18T12:51:37.070Z,46.25
2019-01-18T12:52:37.011Z,46.56
2019-01-18T12:53:37.010Z,46.27